Time;durP1;ratioP1;P1;durP2;ratioP2;P2;SDS_P1;SDS_P2;PMS_P1;PMS_P2;Temp;Humidity;BMP_temperature;BMP_pressure;BME280_temperature;BME280_humidity;BME280_pressure;Samples;Min_cycle;Max_cycle;Signal;HPM_P1;HPM_P2
2023/06/07 00:00:13;;;;;;;;;;;10.00;75.00;;;;;;6153631;23;20327;-86
2023/06/07 00:02:39;;;;;;;;;;;10.00;75.00;;;;;;6185100;23;19954;-86
2023/06/07 00:05:05;;;;;;;;;;;10.00;75.00;;;;;;6187705;23;20231;-86
2023/06/07 00:07:32;;;;;;;;;;;10.00;75.10;;;;;;6153898;23;19986;-86
2023/06/07 00:09:58;;;;;;;;;;;10.00;75.10;;;;;;6162866;23;19920;-85
2023/06/07 00:12:24;;;;;;;;;;;10.00;75.20;;;;;;6136978;23;19970;-87
2023/06/07 00:14:49;;;;;;;;;;;10.00;75.30;;;;;;6162743;23;20326;-87
2023/06/07 00:17:15;;;;;;;;;;;10.00;75.50;;;;;;6153729;23;19983;-86
2023/06/07 00:19:41;;;;;;;;;;;10.00;75.40;;;;;;6163039;23;19920;-86
2023/06/07 00:22:08;;;;;;;;;;;10.00;75.30;;;;;;6161168;23;19923;-86
2023/06/07 00:24:34;;;;;;;;;;;10.00;75.10;;;;;;6187599;23;19948;-86
2023/06/07 00:26:59;;;;;;;;;;;10.00;75.10;;;;;;6155102;23;19916;-87
2023/06/07 00:29:25;;;;;;;;;;;10.00;75.10;;;;;;6186177;23;19916;-88
2023/06/07 00:31:51;;;;;;;;;;;10.00;75.10;;;;;;6138083;23;19920;-87
2023/06/07 00:34:16;;;;;;;;;;;10.00;75.30;;;;;;6161035;23;19919;-86
2023/06/07 00:36:42;;;;;;;;;;;10.00;75.40;;;;;;6181496;23;19923;-88
2023/06/07 00:39:07;;;;;;;;;;;10.00;75.20;;;;;;6161270;23;19915;-86
2023/06/07 00:41:33;;;;;;;;;;;10.00;75.40;;;;;;6162574;23;20207;-86
2023/06/07 00:44:01;;;;;;;;;;;9.90;75.60;;;;;;6186470;23;20288;-86
2023/06/07 00:46:29;;;;;;;;;;;10.00;75.30;;;;;;6158800;23;19912;-90
2023/06/07 00:48:55;;;;;;;;;;;10.00;75.90;;;;;;6182872;23;20282;-86
2023/06/07 00:51:21;;;;;;;;;;;10.00;75.50;;;;;;6186889;23;19924;-86
2023/06/07 00:53:48;;;;;;;;;;;10.00;75.50;;;;;;6161150;23;19999;-86
2023/06/07 00:56:15;;;;;;;;;;;10.00;75.40;;;;;;6160235;23;19923;-89
2023/06/07 00:58:42;;;;;;;;;;;10.00;75.30;;;;;;6142159;23;19922;-86
2023/06/07 01:01:09;;;;;;;;;;;10.00;75.20;;;;;;6187392;23;19920;-86
2023/06/07 01:03:35;;;;;;;;;;;10.00;75.30;;;;;;6160696;23;19943;-86
2023/06/07 01:06:03;;;;;;;;;;;9.90;75.40;;;;;;6187385;23;19974;-86
2023/06/07 01:08:30;;;;;;;;;;;9.90;75.30;;;;;;6153733;23;19979;-86
2023/06/07 01:10:57;;;;;;;;;;;9.90;75.30;;;;;;6187325;23;19916;-86
2023/06/07 01:13:23;;;;;;;;;;;9.80;75.50;;;;;;6146530;23;19985;-86
2023/06/07 01:15:49;;;;;;;;;;;9.80;75.50;;;;;;6162182;23;19958;-86
2023/06/07 01:18:15;;;;;;;;;;;9.90;76.20;;;;;;6165987;23;19916;-86
2023/06/07 01:20:45;;;;;;;;;;;9.90;76.50;;;;;;6163022;23;20051;-86
2023/06/07 01:23:12;;;;;;;;;;;9.90;76.20;;;;;;6160706;23;19927;-86
2023/06/07 01:25:38;;;;;;;;;;;10.00;76.20;;;;;;6138131;23;19916;-86
2023/06/07 01:28:05;;;;;;;;;;;10.00;76.10;;;;;;6177816;23;19986;-88
2023/06/07 01:30:32;;;;;;;;;;;10.00;76.20;;;;;;6162832;23;20351;-86
2023/06/07 01:32:58;;;;;;;;;;;10.00;76.20;;;;;;6160421;23;19946;-87
2023/06/07 01:35:24;;;;;;;;;;;10.00;75.90;;;;;;6162354;23;19923;-86
2023/06/07 01:37:51;;;;;;;;;;;10.00;76.00;;;;;;6179889;23;19987;-87
2023/06/07 01:40:17;;;;;;;;;;;10.00;76.10;;;;;;6162460;23;19923;-86
2023/06/07 01:42:43;;;;;;;;;;;10.00;76.00;;;;;;6185921;23;19926;-86
2023/06/07 01:45:09;;;;;;;;;;;10.00;76.30;;;;;;6162237;23;19955;-86
2023/06/07 01:47:35;;;;;;;;;;;10.00;76.30;;;;;;6153780;23;19920;-86
2023/06/07 01:50:00;;;;;;;;;;;10.00;76.20;;;;;;6162500;23;19923;-86
2023/06/07 01:52:27;;;;;;;;;;;10.00;76.10;;;;;;6185612;23;19916;-86
2023/06/07 01:54:53;;;;;;;;;;;10.00;76.10;;;;;;6162462;23;20301;-86
2023/06/07 01:57:43;;;;;;;;;;;10.00;76.30;;;;;;6128713;23;19915;-87
2023/06/07 02:00:14;;;;;;;;;;;10.10;76.30;;;;;;6188877;23;19970;-86
2023/06/07 02:02:46;;;;;;;;;;;10.10;76.50;;;;;;6187748;23;19923;-86
2023/06/07 02:05:15;;;;;;;;;;;10.10;76.50;;;;;;6188961;23;20002;-86
2023/06/07 02:07:45;;;;;;;;;;;10.10;76.30;;;;;;6154362;23;19920;-87
2023/06/07 02:10:12;;;;;;;;;;;10.20;76.20;;;;;;6188991;23;19922;-86
2023/06/07 02:12:39;;;;;;;;;;;10.20;76.50;;;;;;6187322;23;20361;-86
2023/06/07 02:15:05;;;;;;;;;;;10.20;76.40;;;;;;6188493;23;19920;-87
2023/06/07 02:17:31;;;;;;;;;;;10.20;76.30;;;;;;6179938;23;19986;-86
2023/06/07 02:19:57;;;;;;;;;;;10.30;76.20;;;;;;6188306;23;19939;-88
2023/06/07 02:22:23;;;;;;;;;;;10.30;76.20;;;;;;6162406;23;19920;-86
2023/06/07 02:24:50;;;;;;;;;;;10.30;76.20;;;;;;6164014;23;19964;-86
2023/06/07 02:27:15;;;;;;;;;;;10.30;76.10;;;;;;6180355;23;19983;-87
2023/06/07 02:29:41;;;;;;;;;;;10.30;76.10;;;;;;6188725;23;20330;-86
2023/06/07 02:32:07;;;;;;;;;;;10.30;76.00;;;;;;6137544;23;19920;-87
2023/06/07 02:34:32;;;;;;;;;;;10.30;76.10;;;;;;6163865;23;19916;-86
2023/06/07 02:36:58;;;;;;;;;;;10.30;76.20;;;;;;6181306;23;20235;-89
2023/06/07 02:39:24;;;;;;;;;;;10.30;76.10;;;;;;6139014;23;20238;-86
2023/06/07 02:41:50;;;;;;;;;;;10.30;75.90;;;;;;6189008;23;19916;-86
2023/06/07 02:44:15;;;;;;;;;;;10.30;76.10;;;;;;6162307;23;20258;-86
2023/06/07 02:46:41;;;;;;;;;;;10.30;76.20;;;;;;6133836;23;19915;-86
2023/06/07 02:49:07;;;;;;;;;;;10.30;76.20;;;;;;6160567;23;19915;-87
2023/06/07 02:51:32;;;;;;;;;;;10.40;76.10;;;;;;6163467;23;19923;-86
2023/06/07 02:53:59;;;;;;;;;;;10.40;76.00;;;;;;6162241;23;19916;-87
2023/06/07 02:56:26;;;;;;;;;;;10.30;76.00;;;;;;6159673;23;19974;-90
2023/06/07 02:58:51;;;;;;;;;;;10.30;76.00;;;;;;6183430;23;19916;-86
2023/06/07 03:01:19;;;;;;;;;;;10.30;76.30;;;;;;6188711;23;20315;-86
2023/06/07 03:03:44;;;;;;;;;;;10.30;76.20;;;;;;6186818;23;19923;-87
2023/06/07 03:06:11;;;;;;;;;;;10.30;76.10;;;;;;6162678;23;19953;-89
2023/06/07 03:08:37;;;;;;;;;;;10.40;76.20;;;;;;6155977;23;20291;-87
2023/06/07 03:11:03;;;;;;;;;;;10.40;76.20;;;;;;6187956;23;19916;-87
2023/06/07 03:13:31;;;;;;;;;;;10.40;76.20;;;;;;6162250;23;20295;-86
2023/06/07 03:15:56;;;;;;;;;;;10.40;76.20;;;;;;6163372;23;19920;-85
2023/06/07 03:18:23;;;;;;;;;;;10.40;76.30;;;;;;6155769;23;19927;-86
2023/06/07 03:20:49;;;;;;;;;;;10.40;76.40;;;;;;6188216;23;19916;-87
2023/06/07 03:23:15;;;;;;;;;;;10.40;76.20;;;;;;6186852;23;19948;-86
2023/06/07 03:25:41;;;;;;;;;;;10.40;76.20;;;;;;6188717;23;19987;-87
2023/06/07 03:28:06;;;;;;;;;;;10.40;76.10;;;;;;6130000;23;19934;-86
2023/06/07 03:30:32;;;;;;;;;;;10.40;75.80;;;;;;6163726;23;20378;-86
2023/06/07 03:32:58;;;;;;;;;;;10.50;76.10;;;;;;6162223;23;19916;-87
2023/06/07 03:35:24;;;;;;;;;;;10.50;76.00;;;;;;6163593;23;20282;-87
2023/06/07 03:37:50;;;;;;;;;;;10.50;76.20;;;;;;6156091;23;19916;-87
2023/06/07 03:40:15;;;;;;;;;;;10.50;76.00;;;;;;6187849;23;20002;-87
2023/06/07 03:42:41;;;;;;;;;;;10.50;76.10;;;;;;6161785;23;20345;-88
2023/06/07 03:45:07;;;;;;;;;;;10.50;76.10;;;;;;6163524;23;19931;-87
2023/06/07 03:47:32;;;;;;;;;;;10.50;76.30;;;;;;6178677;23;19991;-86
2023/06/07 03:49:58;;;;;;;;;;;10.50;76.20;;;;;;6162755;23;19916;-86
2023/06/07 03:52:24;;;;;;;;;;;10.50;76.00;;;;;;6161362;23;19915;-86
2023/06/07 03:54:50;;;;;;;;;;;10.60;76.20;;;;;;6187973;23;19916;-86
2023/06/07 03:57:15;;;;;;;;;;;10.60;76.30;;;;;;6178917;23;20727;-87
2023/06/07 03:59:41;;;;;;;;;;;10.60;76.30;;;;;;6138032;23;19920;-86
2023/06/07 04:02:07;;;;;;;;;;;10.70;76.40;;;;;;6186771;23;19923;-86
2023/06/07 04:04:33;;;;;;;;;;;10.70;76.40;;;;;;6161897;23;19922;-86
2023/06/07 04:07:00;;;;;;;;;;;10.70;76.40;;;;;;6230688;23;20034;-86
2023/06/07 04:09:26;;;;;;;;;;;10.70;76.20;;;;;;6185730;23;19950;-86
2023/06/07 04:11:52;;;;;;;;;;;10.70;76.30;;;;;;6186927;23;19915;-86
2023/06/07 04:14:17;;;;;;;;;;;10.80;76.20;;;;;;6161279;23;19916;-87
2023/06/07 04:16:43;;;;;;;;;;;10.80;76.20;;;;;;6156541;23;19916;-90
2023/06/07 04:19:11;;;;;;;;;;;10.80;76.50;;;;;;6160081;23;19915;-87
2023/06/07 04:21:37;;;;;;;;;;;10.80;76.40;;;;;;6162129;23;19982;-86
2023/06/07 04:24:04;;;;;;;;;;;10.90;76.50;;;;;;6185936;23;19916;-87
2023/06/07 04:26:31;;;;;;;;;;;10.90;76.10;;;;;;6182863;23;20542;-88
2023/06/07 04:28:59;;;;;;;;;;;10.90;76.00;;;;;;6168943;23;19916;-87
2023/06/07 04:31:33;;;;;;;;;;;10.90;76.00;;;;;;6187531;23;19916;-86
2023/06/07 04:34:01;;;;;;;;;;;11.00;76.10;;;;;;6185984;23;20003;-87
2023/06/07 04:36:28;;;;;;;;;;;11.00;75.80;;;;;;6159072;23;19919;-91
2023/06/07 04:38:55;;;;;;;;;;;11.00;75.80;;;;;;6160192;23;19916;-86
2023/06/07 04:41:25;;;;;;;;;;;11.10;75.70;;;;;;6137955;23;19920;-87
2023/06/07 04:43:51;;;;;;;;;;;11.10;75.60;;;;;;6161751;23;20438;-86
2023/06/07 04:46:18;;;;;;;;;;;11.10;75.70;;;;;;6160120;23;19966;-90
2023/06/07 04:48:44;;;;;;;;;;;11.10;75.30;;;;;;6156276;23;19930;-88
2023/06/07 04:51:13;;;;;;;;;;;11.10;75.40;;;;;;6161767;23;19943;-87
2023/06/07 04:53:41;;;;;;;;;;;11.10;75.30;;;;;;6182143;23;19920;-86
2023/06/07 04:56:07;;;;;;;;;;;11.10;75.40;;;;;;6184160;23;20347;-90
2023/06/07 04:58:33;;;;;;;;;;;11.10;75.30;;;;;;6152048;23;19920;-87
2023/06/07 05:00:59;;;;;;;;;;;11.10;75.60;;;;;;6159080;23;19951;-86
2023/06/07 05:03:25;;;;;;;;;;;11.20;75.50;;;;;;6185380;23;20228;-87
2023/06/07 05:05:51;;;;;;;;;;;11.30;75.30;;;;;;6187219;23;19916;-86
2023/06/07 05:08:17;;;;;;;;;;;11.30;75.00;;;;;;6153460;23;19915;-87
2023/06/07 05:10:43;;;;;;;;;;;11.30;75.00;;;;;;6187202;23;19938;-86
2023/06/07 05:13:09;;;;;;;;;;;11.30;75.10;;;;;;6185954;23;19917;-87
2023/06/07 05:15:35;;;;;;;;;;;11.30;75.30;;;;;;6162403;23;20373;-89
2023/06/07 05:18:02;;;;;;;;;;;11.40;75.10;;;;;;6177940;23;19916;-87
2023/06/07 05:20:28;;;;;;;;;;;11.40;75.00;;;;;;6187579;23;19915;-86
2023/06/07 05:22:53;;;;;;;;;;;11.40;74.90;;;;;;6185245;23;19990;-87
2023/06/07 05:25:19;;;;;;;;;;;11.50;74.80;;;;;;6162593;23;20288;-88
2023/06/07 05:27:45;;;;;;;;;;;11.50;74.90;;;;;;6177914;23;19950;-87
2023/06/07 05:30:11;;;;;;;;;;;11.50;74.50;;;;;;6162554;23;20319;-87
2023/06/07 05:32:37;;;;;;;;;;;11.50;74.50;;;;;;6161003;23;19915;-87
2023/06/07 05:35:03;;;;;;;;;;;11.50;74.30;;;;;;6163510;23;20600;-86
2023/06/07 05:37:29;;;;;;;;;;;11.60;74.10;;;;;;6156701;23;19994;-86
2023/06/07 05:39:57;;;;;;;;;;;11.60;74.00;;;;;;6164317;23;19916;-87
2023/06/07 05:42:23;;;;;;;;;;;11.60;74.20;;;;;;6162511;23;19930;-86
2023/06/07 05:44:49;;;;;;;;;;;11.60;74.00;;;;;;6164278;23;19916;-88
2023/06/07 05:47:20;;;;;;;;;;;11.60;74.30;;;;;;6155185;23;19916;-86
2023/06/07 05:49:46;;;;;;;;;;;11.60;73.80;;;;;;6189426;23;19966;-86
2023/06/07 05:52:13;;;;;;;;;;;11.70;74.20;;;;;;6162805;23;20270;-87
2023/06/07 05:54:40;;;;;;;;;;;11.70;74.40;;;;;;6189100;23;20253;-86
2023/06/07 05:57:08;;;;;;;;;;;11.70;74.30;;;;;;6155875;23;19919;-88
2023/06/07 05:59:35;;;;;;;;;;;11.80;74.40;;;;;;6188447;23;19983;-87
2023/06/07 06:02:01;;;;;;;;;;;11.90;74.00;;;;;;6139804;23;19951;-85
2023/06/07 06:04:28;;;;;;;;;;;11.90;73.70;;;;;;6187385;23;19916;-86
2023/06/07 06:06:53;;;;;;;;;;;11.90;73.50;;;;;;6156875;23;19918;-86
2023/06/07 06:09:19;;;;;;;;;;;12.00;73.40;;;;;;6162407;23;19916;-88
2023/06/07 06:11:45;;;;;;;;;;;12.00;73.90;;;;;;6188609;23;19918;-87
2023/06/07 06:14:11;;;;;;;;;;;12.10;73.90;;;;;;6187473;23;20090;-89
2023/06/07 06:16:36;;;;;;;;;;;12.10;73.40;;;;;;6158250;23;19922;-90
2023/06/07 06:19:02;;;;;;;;;;;12.20;73.40;;;;;;6161316;23;19919;-87
2023/06/07 06:21:28;;;;;;;;;;;12.20;73.50;;;;;;6164152;23;20242;-88
2023/06/07 06:23:53;;;;;;;;;;;12.20;73.40;;;;;;6161888;23;19951;-86
2023/06/07 06:26:19;;;;;;;;;;;12.30;73.10;;;;;;6161280;23;20232;-90
2023/06/07 06:28:45;;;;;;;;;;;12.30;73.00;;;;;;6157740;23;20338;-86
2023/06/07 06:31:11;;;;;;;;;;;12.30;72.70;;;;;;6188213;23;20003;-86
2023/06/07 06:33:36;;;;;;;;;;;12.30;72.60;;;;;;6187378;23;20001;-86
2023/06/07 06:36:02;;;;;;;;;;;12.30;73.00;;;;;;6188527;23;19999;-86
2023/06/07 06:38:28;;;;;;;;;;;12.30;72.80;;;;;;6156147;23;19923;-86
2023/06/07 06:40:53;;;;;;;;;;;12.30;72.90;;;;;;6187995;23;20345;-87
2023/06/07 06:43:19;;;;;;;;;;;12.40;72.80;;;;;;6160929;23;19916;-87
2023/06/07 06:45:45;;;;;;;;;;;12.50;72.70;;;;;;6163239;23;19915;-88
2023/06/07 06:48:10;;;;;;;;;;;12.50;72.80;;;;;;6154702;23;19916;-86
2023/06/07 06:50:36;;;;;;;;;;;12.60;72.50;;;;;;6163835;23;19915;-86
2023/06/07 06:53:02;;;;;;;;;;;12.70;72.20;;;;;;6187167;23;19920;-87
2023/06/07 06:55:28;;;;;;;;;;;12.70;72.10;;;;;;6188370;23;19994;-88
2023/06/07 06:57:54;;;;;;;;;;;12.70;72.10;;;;;;6179629;23;19990;-87
2023/06/07 07:00:20;;;;;;;;;;;12.70;71.50;;;;;;6188027;23;19926;-87
2023/06/07 07:02:48;;;;;;;;;;;12.70;71.60;;;;;;6161144;23;19983;-87
2023/06/07 07:05:15;;;;;;;;;;;12.80;71.20;;;;;;6188813;23;19922;-87
2023/06/07 07:07:41;;;;;;;;;;;12.90;71.40;;;;;;6180032;23;20001;-90
2023/06/07 07:10:07;;;;;;;;;;;12.90;71.40;;;;;;6139210;23;19919;-87
2023/06/07 07:12:32;;;;;;;;;;;12.90;71.20;;;;;;6186994;23;19916;-89
2023/06/07 07:15:01;;;;;;;;;;;12.90;71.20;;;;;;6164047;23;20003;-88
2023/06/07 07:17:45;;;;;;;;;;;13.00;71.60;;;;;;6155201;23;19966;-88
2023/06/07 07:20:14;;;;;;;;;;;13.00;71.10;;;;;;6164173;23;19915;-87
2023/06/07 07:22:40;;;;;;;;;;;13.00;70.70;;;;;;6162060;23;20227;-87
2023/06/07 07:25:06;;;;;;;;;;;13.00;71.20;;;;;;6187802;23;19926;-88
2023/06/07 07:27:33;;;;;;;;;;;13.00;71.10;;;;;;6129808;23;19951;-86
2023/06/07 07:29:59;;;;;;;;;;;13.00;71.00;;;;;;6163232;23;19923;-88
2023/06/07 07:32:25;;;;;;;;;;;13.10;71.20;;;;;;6186335;23;19916;-88
2023/06/07 07:34:53;;;;;;;;;;;13.30;72.80;;;;;;6162692;23;19915;-88
2023/06/07 07:37:21;;;;;;;;;;;13.50;71.20;;;;;;6181339;23;20007;-87
2023/06/07 07:39:47;;;;;;;;;;;13.60;71.00;;;;;;6187626;23;19916;-87
2023/06/07 07:42:13;;;;;;;;;;;13.80;70.90;;;;;;6134371;23;19981;-87
2023/06/07 07:44:38;;;;;;;;;;;14.00;70.60;;;;;;6185205;23;19919;-86
2023/06/07 07:47:05;;;;;;;;;;;14.10;69.80;;;;;;6151316;23;20553;-87
2023/06/07 07:49:31;;;;;;;;;;;14.30;70.30;;;;;;6185658;23;19924;-87
2023/06/07 07:51:56;;;;;;;;;;;14.40;69.80;;;;;;6161718;23;20377;-87
2023/06/07 07:54:25;;;;;;;;;;;14.50;69.40;;;;;;6142481;23;19947;-89
2023/06/07 07:56:51;;;;;;;;;;;14.40;68.60;;;;;;6151355;23;20047;-87
2023/06/07 07:59:17;;;;;;;;;;;14.30;68.70;;;;;;6159672;23;19944;-86
2023/06/07 08:01:42;;;;;;;;;;;14.30;70.00;;;;;;6185824;23;19966;-87
2023/06/07 08:04:08;;;;;;;;;;;14.30;68.90;;;;;;6159877;23;19916;-86
2023/06/07 08:06:34;;;;;;;;;;;14.30;69.30;;;;;;6155379;23;19923;-91
2023/06/07 08:08:59;;;;;;;;;;;14.30;68.70;;;;;;6156940;23;19990;-88
2023/06/07 08:11:25;;;;;;;;;;;14.30;69.30;;;;;;6185871;23;19966;-87
2023/06/07 08:13:51;;;;;;;;;;;14.40;68.70;;;;;;6159577;23;19951;-87
2023/06/07 08:16:17;;;;;;;;;;;14.50;68.70;;;;;;6158632;23;19923;-90
2023/06/07 08:18:49;;;;;;;;;;;14.40;68.20;;;;;;6165969;23;20349;-87
2023/06/07 08:21:30;;;;;;;;;;;14.40;68.60;;;;;;6160200;23;20230;-91
2023/06/07 08:23:56;;;;;;;;;;;14.50;68.60;;;;;;6134715;23;19919;-85
2023/06/07 08:26:22;;;;;;;;;;;14.50;68.60;;;;;;6182621;23;20390;-89
2023/06/07 08:28:48;;;;;;;;;;;14.50;68.80;;;;;;6154416;23;19920;-87
2023/06/07 08:31:14;;;;;;;;;;;14.60;68.50;;;;;;6184959;23;19915;-87
2023/06/07 08:33:42;;;;;;;;;;;14.60;68.00;;;;;;6160661;23;19955;-87
2023/06/07 08:36:07;;;;;;;;;;;14.60;68.90;;;;;;6137394;23;20286;-89
2023/06/07 08:38:41;;;;;;;;;;;14.60;68.60;;;;;;6153290;23;19920;-88
2023/06/07 08:41:09;;;;;;;;;;;14.50;67.90;;;;;;6158715;23;19954;-90
2023/06/07 08:43:38;;;;;;;;;;;14.50;68.50;;;;;;6157441;23;19916;-88
2023/06/07 08:46:06;;;;;;;;;;;14.60;69.00;;;;;;6158957;23;19916;-89
2023/06/07 08:48:39;;;;;;;;;;;14.70;68.50;;;;;;6152391;23;19931;-88
2023/06/07 08:51:10;;;;;;;;;;;14.70;69.40;;;;;;6159793;23;20330;-86
2023/06/07 08:53:54;;;;;;;;;;;14.70;68.20;;;;;;6157396;23;19970;-86
2023/06/07 08:56:21;;;;;;;;;;;14.70;68.30;;;;;;6180956;23;19919;-89
2023/06/07 08:58:48;;;;;;;;;;;14.70;68.10;;;;;;6154196;23;20379;-86
2023/06/07 09:01:15;;;;;;;;;;;14.80;68.00;;;;;;6163040;23;20247;-86
2023/06/07 09:03:41;;;;;;;;;;;14.70;68.80;;;;;;6172493;23;19966;-86
2023/06/07 09:06:08;;;;;;;;;;;14.80;68.60;;;;;;6162554;23;20315;-88
2023/06/07 09:08:36;;;;;;;;;;;14.70;68.50;;;;;;6154265;23;19916;-86
2023/06/07 09:11:02;;;;;;;;;;;14.70;68.60;;;;;;6162547;23;19916;-87
2023/06/07 09:13:31;;;;;;;;;;;14.60;68.20;;;;;;6158685;23;20403;-88
2023/06/07 09:15:57;;;;;;;;;;;14.60;67.60;;;;;;6162717;23;19925;-86
2023/06/07 09:18:59;;;;;;;;;;;14.60;68.00;;;;;;6160735;23;20250;-87
2023/06/07 09:21:32;;;;;;;;;;;14.70;69.10;;;;;;6161891;23;20315;-88
2023/06/07 09:23:58;;;;;;;;;;;14.80;68.60;;;;;;6160697;23;19971;-87
2023/06/07 09:26:35;;;;;;;;;;;14.80;68.50;;;;;;6158911;23;19974;-91
2023/06/07 09:29:07;;;;;;;;;;;14.90;68.80;;;;;;6160100;23;19926;-87
2023/06/07 09:31:33;;;;;;;;;;;14.90;68.50;;;;;;6162532;23;19915;-86
2023/06/07 09:33:59;;;;;;;;;;;14.80;68.30;;;;;;6125165;23;19916;-86
2023/06/07 09:36:27;;;;;;;;;;;14.90;68.60;;;;;;6159464;23;20570;-89
2023/06/07 09:38:52;;;;;;;;;;;15.00;68.90;;;;;;6159197;23;20249;-87
2023/06/07 09:41:18;;;;;;;;;;;15.20;68.10;;;;;;6186825;23;19920;-86
2023/06/07 09:44:27;;;;;;;;;;;15.20;68.20;;;;;;6160448;23;20414;-86
2023/06/07 09:46:53;;;;;;;;;;;15.30;68.70;;;;;;6155403;23;19912;-87
2023/06/07 09:49:31;;;;;;;;;;;15.30;68.10;;;;;;6185131;23;20361;-88
2023/06/07 09:51:57;;;;;;;;;;;15.40;69.00;;;;;;6162070;23;19990;-87
2023/06/07 09:54:43;;;;;;;;;;;15.40;67.30;;;;;;6184908;23;19962;-88
2023/06/07 09:57:17;;;;;;;;;;;15.40;68.50;;;;;;6136262;23;19916;-88
2023/06/07 09:59:58;;;;;;;;;;;15.50;67.40;;;;;;6185913;23;19915;-88
2023/06/07 10:02:25;;;;;;;;;;;15.40;67.60;;;;;;6160890;23;19919;-87
2023/06/07 10:04:53;;;;;;;;;;;15.40;67.90;;;;;;6187299;23;19922;-88
2023/06/07 10:07:21;;;;;;;;;;;15.40;67.80;;;;;;6164489;23;19947;-88
2023/06/07 10:09:49;;;;;;;;;;;15.40;68.30;;;;;;6186849;23;20354;-88
2023/06/07 10:12:16;;;;;;;;;;;15.50;67.70;;;;;;6185116;23;19920;-88
2023/06/07 10:14:44;;;;;;;;;;;15.50;67.60;;;;;;6161650;23;19927;-86
2023/06/07 10:17:10;;;;;;;;;;;15.40;67.40;;;;;;6177622;23;19924;-89
2023/06/07 10:19:39;;;;;;;;;;;15.40;67.70;;;;;;6162112;23;19915;-89
2023/06/07 10:22:08;;;;;;;;;;;15.40;68.00;;;;;;6161891;23;20228;-87
2023/06/07 10:24:36;;;;;;;;;;;15.50;68.20;;;;;;6163963;23;19991;-87
2023/06/07 10:27:13;;;;;;;;;;;15.60;67.70;;;;;;6156705;23;20026;-89
2023/06/07 10:29:45;;;;;;;;;;;15.60;67.90;;;;;;6161600;23;19987;-89
2023/06/07 10:32:16;;;;;;;;;;;15.60;66.90;;;;;;6187206;23;19983;-87
2023/06/07 10:34:46;;;;;;;;;;;15.50;68.00;;;;;;6164366;23;20215;-88
2023/06/07 10:37:23;;;;;;;;;;;15.50;67.50;;;;;;6157499;23;19994;-89
2023/06/07 10:39:49;;;;;;;;;;;15.50;66.70;;;;;;6164008;23;19916;-87
2023/06/07 10:42:35;;;;;;;;;;;15.40;66.20;;;;;;6189101;23;19967;-90
2023/06/07 10:45:14;;;;;;;;;;;15.30;67.10;;;;;;6166730;23;19916;-88
2023/06/07 10:47:44;;;;;;;;;;;15.30;67.30;;;;;;6180448;23;19954;-89
2023/06/07 10:50:28;;;;;;;;;;;15.30;67.80;;;;;;6163894;23;19916;-87
2023/06/07 10:53:03;;;;;;;;;;;15.50;67.40;;;;;;6147959;23;19920;-88
2023/06/07 10:55:32;;;;;;;;;;;15.50;67.00;;;;;;6163413;23;19966;-89
2023/06/07 10:57:58;;;;;;;;;;;15.50;67.50;;;;;;6141028;23;19969;-88
2023/06/07 11:00:31;;;;;;;;;;;15.50;67.10;;;;;;6187926;23;19915;-88
2023/06/07 11:03:20;;;;;;;;;;;15.60;67.90;;;;;;6147478;23;20577;-89
2023/06/07 11:05:52;;;;;;;;;;;15.60;66.90;;;;;;6180310;23;19916;-87
2023/06/07 11:08:31;;;;;;;;;;;15.60;68.30;;;;;;6140898;23;19922;-87
2023/06/07 11:11:20;;;;;;;;;;;15.60;67.30;;;;;;6164051;23;19922;-93
2023/06/07 11:14:24;;;;;;;;;;;15.70;67.30;;;;;;6094966;23;19917;-89
2023/06/07 11:17:08;;;;;;;;;;;15.60;67.70;;;;;;6111602;23;19939;-91
2023/06/07 11:19:52;;;;;;;;;;;15.60;67.40;;;;;;6187065;23;19915;-89
2023/06/07 11:23:08;;;;;;;;;;;;;;;;;;;;;
2023/06/07 11:25:25;;;;;;;;;;;15.60;67.60;;;;;;6160891;23;19917;-88
2023/06/07 11:28:07;;;;;;;;;;;15.70;67.10;;;;;;6142997;23;19916;-88
2023/06/07 11:31:03;;;;;;;;;;;15.70;66.90;;;;;;6111742;23;20000;-88
2023/06/07 11:36:53;;;;;;;;;;;15.80;67.00;;;;;;6141343;23;19912;-92
2023/06/07 11:39:31;;;;;;;;;;;15.80;67.50;;;;;;6126976;23;19948;-89
2023/06/07 11:42:17;;;;;;;;;;;16.00;66.90;;;;;;6176945;23;19917;-91
2023/06/07 11:44:49;;;;;;;;;;;16.00;67.00;;;;;;6135222;23;19917;-88
2023/06/07 11:47:26;;;;;;;;;;;16.00;66.90;;;;;;6106395;23;19995;-88
2023/06/07 11:50:30;;;;;;;;;;;16.00;67.20;;;;;;6172014;23;20529;-89
2023/06/07 11:53:09;;;;;;;;;;;16.00;66.20;;;;;;6145862;23;19923;-89
2023/06/07 11:55:38;;;;;;;;;;;16.00;66.40;;;;;;6187219;23;19916;-88
2023/06/07 11:58:13;;;;;;;;;;;16.10;66.60;;;;;;6153815;23;19923;-88
2023/06/07 12:00:41;;;;;;;;;;;16.00;66.60;;;;;;6163243;23;19966;-88
2023/06/07 12:03:16;;;;;;;;;;;16.00;66.70;;;;;;6185955;23;20405;-91
2023/06/07 12:05:57;;;;;;;;;;;16.00;65.80;;;;;;6165789;23;19930;-88
2023/06/07 12:08:33;;;;;;;;;;;16.00;65.90;;;;;;6156060;23;19916;-87
2023/06/07 12:11:04;;;;;;;;;;;15.80;65.90;;;;;;6164155;23;19920;-89
2023/06/07 12:13:59;;;;;;;;;;;;;;;;;;;;;
2023/06/07 12:16:40;;;;;;;;;;;15.90;67.50;;;;;;6182994;23;19912;-91
2023/06/07 12:19:12;;;;;;;;;;;16.10;67.40;;;;;;6158203;23;19983;-89
2023/06/07 12:21:46;;;;;;;;;;;16.00;66.60;;;;;;6163085;23;19920;-91
2023/06/07 12:24:12;;;;;;;;;;;16.10;66.00;;;;;;6186639;23;19942;-88
2023/06/07 12:26:48;;;;;;;;;;;16.10;66.80;;;;;;6132827;23;19920;-88
2023/06/07 12:29:27;;;;;;;;;;;16.10;66.10;;;;;;6146723;23;20413;-89
2023/06/07 12:32:11;;;;;;;;;;;16.20;66.40;;;;;;6162672;23;19939;-92
2023/06/07 12:34:41;;;;;;;;;;;16.20;66.20;;;;;;6185022;23;19916;-89
2023/06/07 12:37:09;;;;;;;;;;;16.30;66.50;;;;;;6155861;23;19912;-89
2023/06/07 12:39:37;;;;;;;;;;;16.20;66.90;;;;;;6163614;23;19923;-89
2023/06/07 12:42:03;;;;;;;;;;;16.20;65.90;;;;;;6185338;23;19991;-86
2023/06/07 12:44:32;;;;;;;;;;;16.30;66.30;;;;;;6162203;23;19966;-87
2023/06/07 12:46:58;;;;;;;;;;;16.40;66.90;;;;;;6130653;23;20259;-90
2023/06/07 12:49:26;;;;;;;;;;;16.40;66.30;;;;;;6144360;23;19946;-89
2023/06/07 12:51:52;;;;;;;;;;;16.40;65.20;;;;;;6162360;23;19926;-89
2023/06/07 12:54:21;;;;;;;;;;;16.30;65.40;;;;;;6145261;23;19920;-89
2023/06/07 12:56:50;;;;;;;;;;;16.30;65.80;;;;;;6155869;23;19912;-90
2023/06/07 12:59:25;;;;;;;;;;;16.30;66.40;;;;;;6177144;23;20225;-92
2023/06/07 13:01:51;;;;;;;;;;;16.30;65.80;;;;;;6132783;23;19916;-88
2023/06/07 13:04:24;;;;;;;;;;;16.40;66.30;;;;;;6136932;23;19916;-87
2023/06/07 13:06:50;;;;;;;;;;;16.40;66.10;;;;;;6125649;23;19951;-89
2023/06/07 13:09:24;;;;;;;;;;;16.40;65.80;;;;;;6156109;23;19916;-89
2023/06/07 13:11:51;;;;;;;;;;;16.40;66.20;;;;;;6157449;23;20347;-88
2023/06/07 13:14:44;;;;;;;;;;;16.40;65.50;;;;;;6155955;23;19916;-90
2023/06/07 13:17:10;;;;;;;;;;;16.40;65.70;;;;;;6107538;23;19927;-88
2023/06/07 13:19:36;;;;;;;;;;;16.40;66.60;;;;;;6157097;23;20326;-87
2023/06/07 13:22:02;;;;;;;;;;;16.50;66.00;;;;;;6126616;23;19924;-87
2023/06/07 13:24:32;;;;;;;;;;;16.40;65.90;;;;;;6105402;23;19920;-88
2023/06/07 13:26:57;;;;;;;;;;;16.40;65.30;;;;;;6122318;23;19991;-88
2023/06/07 13:29:26;;;;;;;;;;;16.40;66.00;;;;;;6128270;23;19995;-88
2023/06/07 13:31:53;;;;;;;;;;;16.30;65.10;;;;;;6132046;23;19955;-87
2023/06/07 13:34:18;;;;;;;;;;;16.10;65.30;;;;;;6114137;23;19920;-87
2023/06/07 13:36:47;;;;;;;;;;;16.10;65.50;;;;;;6124095;23;19912;-89
2023/06/07 13:39:19;;;;;;;;;;;16.20;65.50;;;;;;6105210;23;19916;-89
2023/06/07 13:41:45;;;;;;;;;;;16.20;65.50;;;;;;6129769;23;19967;-90
2023/06/07 13:44:28;;;;;;;;;;;16.20;66.20;;;;;;6115863;23;19939;-88
2023/06/07 13:46:59;;;;;;;;;;;16.20;67.00;;;;;;6125400;23;19923;-89
2023/06/07 13:49:24;;;;;;;;;;;16.20;67.10;;;;;;6103246;23;19927;-86
2023/06/07 13:51:53;;;;;;;;;;;16.40;66.50;;;;;;6131557;23;19916;-88
2023/06/07 13:54:19;;;;;;;;;;;16.40;66.80;;;;;;6154239;23;19943;-88
2023/06/07 13:56:45;;;;;;;;;;;16.50;65.70;;;;;;6127763;23;19916;-89
2023/06/07 13:59:13;;;;;;;;;;;16.50;65.70;;;;;;6162029;23;19923;-87
2023/06/07 14:01:39;;;;;;;;;;;16.50;66.60;;;;;;6188478;23;19915;-85
2023/06/07 14:04:15;;;;;;;;;;;16.40;65.70;;;;;;6162027;23;19969;-88
2023/06/07 14:06:50;;;;;;;;;;;16.40;66.70;;;;;;6155036;23;20014;-89
2023/06/07 14:09:27;;;;;;;;;;;16.50;66.50;;;;;;6123887;23;19923;-88
2023/06/07 14:11:53;;;;;;;;;;;16.60;66.50;;;;;;6163935;23;20231;-86
2023/06/07 14:14:20;;;;;;;;;;;16.50;65.60;;;;;;6187298;23;19968;-83
2023/06/07 14:16:45;;;;;;;;;;;16.50;65.80;;;;;;6180781;23;19962;-86
2023/06/07 14:19:11;;;;;;;;;;;16.40;65.80;;;;;;6186029;23;19920;-85
2023/06/07 14:21:37;;;;;;;;;;;16.40;65.10;;;;;;6188555;23;19915;-86
2023/06/07 14:24:03;;;;;;;;;;;16.30;65.20;;;;;;6162486;23;20353;-84
2023/06/07 14:26:29;;;;;;;;;;;16.20;66.20;;;;;;6134211;23;19995;-87
2023/06/07 14:28:54;;;;;;;;;;;16.40;66.70;;;;;;6158965;23;19916;-84
2023/06/07 14:31:21;;;;;;;;;;;16.40;66.10;;;;;;6188320;23;19919;-85